Time;durP1;ratioP1;P1;durP2;ratioP2;P2;SDS_P1;SDS_P2;PMS_P1;PMS_P2;Temp;Humidity;BMP_temperature;BMP_pressure;BME280_temperature;BME280_humidity;BME280_pressure;Samples;Min_cycle;Max_cycle;Signal;HPM_P1;HPM_P2
2023/03/04 00:00:20;;;;;;;13.00;2.40;;;;;;;;;;4762533;30;20150;-90
2023/03/04 00:02:46;;;;;;;29.85;3.78;;;;;;;;;;4762162;30;20063;-93
2023/03/04 00:05:15;;;;;;;8.00;2.60;;;;;;;;;;4778451;30;20085;-89
2023/03/04 00:07:41;;;;;;;7.65;2.03;;;;;;;;;;4762508;30;20459;-92
2023/03/04 00:10:07;;;;;;;9.68;2.10;;;;;;;;;;4761199;30;20067;-90
2023/03/04 00:12:34;;;;;;;12.50;3.53;;;;;;;;;;4746258;30;20408;-90
2023/03/04 00:15:00;;;;;;;14.60;3.00;;;;;;;;;;4761396;30;20094;-92
2023/03/04 00:17:28;;;;;;;15.73;4.57;;;;;;;;;;4773478;30;20091;-89
2023/03/04 00:19:55;;;;;;;13.25;2.20;;;;;;;;;;4754858;30;20059;-92
2023/03/04 00:22:21;;;;;;;15.65;2.63;;;;;;;;;;4770723;30;20577;-91
2023/03/04 00:24:47;;;;;;;12.07;2.63;;;;;;;;;;4756562;30;20063;-89
2023/03/04 00:27:16;;;;;;;11.13;3.20;;;;;;;;;;4758565;30;20056;-89
2023/03/04 00:29:42;;;;;;;11.93;2.83;;;;;;;;;;4742203;30;20055;-90
2023/03/04 00:32:08;;;;;;;17.80;3.30;;;;;;;;;;4744093;30;20526;-89
2023/03/04 00:34:35;;;;;;;10.82;2.85;;;;;;;;;;4743632;30;20052;-88
2023/03/04 00:37:02;;;;;;;12.80;2.50;;;;;;;;;;4762162;30;20052;-91
2023/03/04 00:39:28;;;;;;;12.07;2.33;;;;;;;;;;4760300;30;20121;-91
2023/03/04 00:41:54;;;;;;;5.90;2.38;;;;;;;;;;4756009;30;20055;-89
2023/03/04 00:44:20;;;;;;;17.50;3.28;;;;;;;;;;4758936;30;20059;-89
2023/03/04 00:46:52;;;;;;;12.38;2.90;;;;;;;;;;4763003;30;20510;-89
2023/03/04 00:49:18;;;;;;;16.23;2.72;;;;;;;;;;4762199;30;20055;-89
2023/03/04 00:51:44;;;;;;;10.95;3.20;;;;;;;;;;4760453;30;20066;-88
2023/03/04 00:54:16;;;;;;;12.90;2.38;;;;;;;;;;4758168;30;20059;-89
2023/03/04 00:56:42;;;;;;;12.40;2.70;;;;;;;;;;4757835;30;20055;-89
2023/03/04 00:59:08;;;;;;;12.77;2.58;;;;;;;;;;4758283;30;20059;-88
2023/03/04 01:01:34;;;;;;;8.10;2.10;;;;;;;;;;4743902;30;20661;-88
2023/03/04 01:04:00;;;;;;;11.10;2.42;;;;;;;;;;4758609;30;20094;-89
2023/03/04 01:06:26;;;;;;;21.98;2.40;;;;;;;;;;4757832;30;20059;-88
2023/03/04 01:08:52;;;;;;;11.63;2.30;;;;;;;;;;4759080;30;20505;-89
2023/03/04 01:11:19;;;;;;;4.15;1.45;;;;;;;;;;4757619;30;20051;-89
2023/03/04 01:13:45;;;;;;;8.68;2.33;;;;;;;;;;4742282;30;20052;-91
2023/03/04 01:16:11;;;;;;;9.20;2.55;;;;;;;;;;4756913;30;20062;-89
2023/03/04 01:18:38;;;;;;;16.95;2.95;;;;;;;;;;4756721;30;20048;-90
2023/03/04 01:21:04;;;;;;;8.73;2.20;;;;;;;;;;4756482;30;20573;-90
2023/03/04 01:23:30;;;;;;;8.73;1.90;;;;;;;;;;4757012;30;20102;-88
2023/03/04 01:25:56;;;;;;;15.73;2.70;;;;;;;;;;4727326;30;20048;-89
2023/03/04 01:28:23;;;;;;;13.45;2.08;;;;;;;;;;4727525;30;20064;-88
2023/03/04 01:30:49;;;;;;;11.63;2.63;;;;;;;;;;4737578;30;20502;-88
2023/03/04 01:33:15;;;;;;;14.02;3.17;;;;;;;;;;4767866;30;20123;-88
2023/03/04 01:35:41;;;;;;;9.93;2.63;;;;;;;;;;4767457;30;20119;-88
2023/03/04 01:38:07;;;;;;;12.75;3.15;;;;;;;;;;4766918;30;20047;-88
2023/03/04 01:40:33;;;;;;;15.35;3.13;;;;;;;;;;4758531;30;20106;-91
2023/03/04 01:42:59;;;;;;;19.45;3.50;;;;;;;;;;4756355;30;20296;-92
2023/03/04 01:45:26;;;;;;;11.25;3.22;;;;;;;;;;4756217;30;20090;-91
2023/03/04 01:47:52;;;;;;;6.53;2.15;;;;;;;;;;4756347;30;20056;-89
2023/03/04 01:50:32;;;;;;;9.95;2.75;;;;;;;;;;4756763;30;20061;-89
2023/03/04 01:52:58;;;;;;;14.57;2.63;;;;;;;;;;4755975;30;20052;-88
2023/03/04 01:55:24;;;;;;;9.27;4.00;;;;;;;;;;4741639;30;20422;-90
2023/03/04 01:57:51;;;;;;;8.13;2.53;;;;;;;;;;4756229;30;20091;-90
2023/03/04 02:00:18;;;;;;;6.32;2.38;;;;;;;;;;4726895;30;20103;-89
2023/03/04 02:02:44;;;;;;;9.40;2.20;;;;;;;;;;4756023;30;20056;-89
2023/03/04 02:05:11;;;;;;;9.70;2.10;;;;;;;;;;4756387;30;20510;-90
2023/03/04 02:07:37;;;;;;;16.73;3.20;;;;;;;;;;4755525;30;20062;-88
2023/03/04 02:10:03;;;;;;;12.57;3.42;;;;;;;;;;4740579;30;20060;-90
2023/03/04 02:12:29;;;;;;;8.48;3.15;;;;;;;;;;4756215;30;20421;-89
2023/03/04 02:14:55;;;;;;;12.95;3.10;;;;;;;;;;4755936;30;20102;-90
2023/03/04 02:17:28;;;;;;;6.28;2.70;;;;;;;;;;4757890;30;20056;-93
2023/03/04 02:20:09;;;;;;;10.13;2.90;;;;;;;;;;4757503;30;20052;-90
2023/03/04 02:22:38;;;;;;;8.02;2.45;;;;;;;;;;4755897;30;20098;-90
2023/03/04 02:25:10;;;;;;;12.70;2.22;;;;;;;;;;4756215;30;20410;-92
2023/03/04 02:27:36;;;;;;;7.53;1.95;;;;;;;;;;4755737;30;20056;-90
2023/03/04 02:30:02;;;;;;;9.63;4.18;;;;;;;;;;4727009;30;20063;-89
2023/03/04 02:32:28;;;;;;;7.07;2.08;;;;;;;;;;4756452;30;20052;-90
2023/03/04 02:34:55;;;;;;;8.23;2.30;;;;;;;;;;4758296;30;20068;-95
2023/03/04 02:37:21;;;;;;;10.00;2.63;;;;;;;;;;4758313;30;20068;-93
2023/03/04 02:39:48;;;;;;;7.72;1.95;;;;;;;;;;4757375;30;20056;-89
2023/03/04 02:42:15;;;;;;;9.75;2.78;;;;;;;;;;4759328;30;20059;-94
2023/03/04 02:44:45;;;;;;;7.57;2.80;;;;;;;;;;4763841;30;20052;-89
2023/03/04 02:47:11;;;;;;;7.28;2.35;;;;;;;;;;4756521;30;20414;-94
2023/03/04 02:49:38;;;;;;;4.63;2.20;;;;;;;;;;4756003;30;20059;-90
2023/03/04 02:52:16;;;;;;;5.88;2.72;;;;;;;;;;4758010;30;20062;-89
2023/03/04 02:54:43;;;;;;;11.02;2.78;;;;;;;;;;4773064;24;20059;-89
2023/03/04 02:57:10;;;;;;;14.38;2.33;;;;;;;;;;4771915;30;20051;-89
2023/03/04 02:59:37;;;;;;;6.97;2.00;;;;;;;;;;4772828;30;20074;-88
2023/03/04 03:02:03;;;;;;;11.52;2.60;;;;;;;;;;4774474;30;20104;-89
2023/03/04 03:04:29;;;;;;;11.70;2.15;;;;;;;;;;4760698;30;20060;-89
2023/03/04 03:06:55;;;;;;;8.23;2.15;;;;;;;;;;4760483;30;20064;-90
2023/03/04 03:09:23;;;;;;;3.35;1.40;;;;;;;;;;4761579;30;20094;-91
2023/03/04 03:11:50;;;;;;;5.47;2.10;;;;;;;;;;4775033;30;20059;-91
2023/03/04 03:14:17;;;;;;;6.00;2.33;;;;;;;;;;4761288;30;20056;-91
2023/03/04 03:16:44;;;;;;;11.50;3.42;;;;;;;;;;4776647;30;20066;-90
2023/03/04 03:19:11;;;;;;;10.20;1.92;;;;;;;;;;4760471;30;20091;-94
2023/03/04 03:21:37;;;;;;;12.23;2.42;;;;;;;;;;4761867;30;20056;-90
2023/03/04 03:24:03;;;;;;;10.10;2.03;;;;;;;;;;4743516;30;20062;-90
2023/03/04 03:26:29;;;;;;;9.80;2.55;;;;;;;;;;4758330;30;20048;-90
2023/03/04 03:28:55;;;;;;;9.30;2.42;;;;;;;;;;4757113;30;20126;-89
2023/03/04 03:31:21;;;;;;;7.03;2.25;;;;;;;;;;4742607;30;20059;-91
2023/03/04 03:33:47;;;;;;;9.05;3.00;;;;;;;;;;4756089;30;20059;-92
2023/03/04 03:36:13;;;;;;;11.00;3.42;;;;;;;;;;4771390;30;20052;-93
2023/03/04 03:38:40;;;;;;;11.68;2.35;;;;;;;;;;4754707;30;20090;-91
2023/03/04 03:41:06;;;;;;;11.93;2.60;;;;;;;;;;4742565;30;20080;-89
2023/03/04 03:43:33;;;;;;;6.38;1.73;;;;;;;;;;4768490;30;20055;-88
2023/03/04 03:45:59;;;;;;;6.63;2.03;;;;;;;;;;4783992;30;20051;-88
2023/03/04 03:48:35;;;;;;;6.90;2.72;;;;;;;;;;4781503;30;20089;-88
2023/03/04 03:51:04;;;;;;;8.45;2.00;;;;;;;;;;4786493;30;20400;-88
2023/03/04 03:53:30;;;;;;;4.25;1.83;;;;;;;;;;4780812;30;20079;-88
2023/03/04 03:55:57;;;;;;;8.40;1.80;;;;;;;;;;4779950;30;20065;-90
2023/03/04 03:58:25;;;;;;;11.18;2.30;;;;;;;;;;4776570;30;20055;-88
2023/03/04 04:00:51;;;;;;;7.38;1.92;;;;;;;;;;4771122;30;20072;-93
2023/03/04 04:03:18;;;;;;;9.30;2.70;;;;;;;;;;4755826;30;20056;-92
2023/03/04 04:05:44;;;;;;;12.43;2.10;;;;;;;;;;4757733;30;20095;-91
2023/03/04 04:08:14;;;;;;;7.90;2.00;;;;;;;;;;4756095;30;20047;-91
2023/03/04 04:10:40;;;;;;;16.70;2.63;;;;;;;;;;4739822;30;20087;-90
2023/03/04 04:13:06;;;;;;;12.35;2.75;;;;;;;;;;4754179;30;20063;-89
2023/03/04 04:15:32;;;;;;;7.63;1.75;;;;;;;;;;4754171;30;20595;-91
2023/03/04 04:17:58;;;;;;;14.98;2.47;;;;;;;;;;4740091;30;20056;-91
2023/03/04 04:20:24;;;;;;;10.18;1.90;;;;;;;;;;4741565;30;20130;-90
2023/03/04 04:22:51;;;;;;;5.70;2.10;;;;;;;;;;4756238;30;20063;-89
2023/03/04 04:25:17;;;;;;;6.60;2.30;;;;;;;;;;4755955;30;20059;-89
2023/03/04 04:27:43;;;;;;;11.13;2.20;;;;;;;;;;4756205;30;20064;-90
2023/03/04 04:30:09;;;;;;;7.95;2.35;;;;;;;;;;4757942;30;20087;-88
2023/03/04 04:32:35;;;;;;;14.95;2.55;;;;;;;;;;4744458;30;20055;-90
2023/03/04 04:35:01;;;;;;;4.63;2.03;;;;;;;;;;4743021;30;20060;-91
2023/03/04 04:37:28;;;;;;;14.02;2.15;;;;;;;;;;4742892;30;20051;-89
2023/03/04 04:39:54;;;;;;;10.15;2.53;;;;;;;;;;4757663;30;20142;-90
2023/03/04 04:42:20;;;;;;;9.85;2.30;;;;;;;;;;4772221;30;20055;-88
2023/03/04 04:44:47;;;;;;;7.68;2.00;;;;;;;;;;4757773;30;20100;-88
2023/03/04 04:47:13;;;;;;;7.32;2.00;;;;;;;;;;4757915;30;20409;-89
2023/03/04 04:49:39;;;;;;;11.05;1.67;;;;;;;;;;4757992;30;20054;-94
2023/03/04 04:52:05;;;;;;;10.55;1.38;;;;;;;;;;4757253;30;20151;-90
2023/03/04 04:54:31;;;;;;;7.68;2.10;;;;;;;;;;4757506;30;20067;-90
2023/03/04 04:56:57;;;;;;;10.63;1.55;;;;;;;;;;4757782;30;20459;-92
2023/03/04 04:59:23;;;;;;;3.03;1.45;;;;;;;;;;4757199;30;20506;-91
2023/03/04 05:01:49;;;;;;;6.57;1.70;;;;;;;;;;4757718;30;20056;-90
2023/03/04 05:04:16;;;;;;;13.60;1.63;;;;;;;;;;4742995;30;20128;-88
2023/03/04 05:06:42;;;;;;;4.30;1.20;;;;;;;;;;4757008;30;20051;-88
2023/03/04 05:09:08;;;;;;;6.05;1.63;;;;;;;;;;4756885;30;20150;-88
2023/03/04 05:11:34;;;;;;;10.07;1.92;;;;;;;;;;4756687;30;20051;-88
2023/03/04 05:14:01;;;;;;;5.22;1.40;;;;;;;;;;4742400;30;20059;-88
2023/03/04 05:16:27;;;;;;;7.40;1.45;;;;;;;;;;4756728;30;20506;-88
2023/03/04 05:18:53;;;;;;;4.82;1.58;;;;;;;;;;4741839;30;20056;-89
2023/03/04 05:21:19;;;;;;;6.18;1.50;;;;;;;;;;4742149;30;20109;-95
2023/03/04 05:23:45;;;;;;;5.38;2.25;;;;;;;;;;4742834;30;20060;-90
2023/03/04 05:26:13;;;;;;;9.30;2.13;;;;;;;;;;4757120;30;20153;-90
2023/03/04 05:28:39;;;;;;;3.25;1.92;;;;;;;;;;4756888;30;20058;-90
2023/03/04 05:31:05;;;;;;;4.35;1.80;;;;;;;;;;4742355;30;20180;-89
2023/03/04 05:33:32;;;;;;;10.07;1.42;;;;;;;;;;4742076;30;20121;-88
2023/03/04 05:35:58;;;;;;;7.18;2.13;;;;;;;;;;4756621;30;20071;-89
2023/03/04 05:38:24;;;;;;;3.45;1.95;;;;;;;;;;4756302;30;20144;-90
2023/03/04 05:40:58;;;;;;;7.28;2.42;;;;;;;;;;4756773;30;20078;-90
2023/03/04 05:43:25;;;;;;;8.68;2.33;;;;;;;;;;4755580;30;20052;-89
2023/03/04 05:45:51;;;;;;;8.13;2.70;;;;;;;;;;4756342;30;20064;-89
2023/03/04 05:48:17;;;;;;;7.22;1.77;;;;;;;;;;4756499;30;20055;-90
2023/03/04 05:50:43;;;;;;;6.68;2.40;;;;;;;;;;4756451;30;20047;-90
2023/03/04 05:53:09;;;;;;;7.50;1.73;;;;;;;;;;4756438;30;20059;-89
2023/03/04 05:55:35;;;;;;;7.13;2.47;;;;;;;;;;4756304;30;20095;-92
2023/03/04 05:58:02;;;;;;;5.78;1.85;;;;;;;;;;4759306;30;20063;-89
2023/03/04 06:00:28;;;;;;;8.27;1.85;;;;;;;;;;4758151;30;20071;-90
2023/03/04 06:02:54;;;;;;;8.27;2.55;;;;;;;;;;4758317;30;20047;-91
2023/03/04 06:05:21;;;;;;;10.63;2.20;;;;;;;;;;4757285;30;20063;-90
2023/03/04 06:07:47;;;;;;;9.77;1.92;;;;;;;;;;4759029;30;20058;-90
2023/03/04 06:10:14;;;;;;;4.10;1.63;;;;;;;;;;4756401;30;20059;-90
2023/03/04 06:12:40;;;;;;;10.45;2.65;;;;;;;;;;4756105;30;20150;-92
2023/03/04 06:15:08;;;;;;;6.05;1.63;;;;;;;;;;4755524;30;20067;-89
2023/03/04 06:17:35;;;;;;;12.82;1.80;;;;;;;;;;4755763;30;20058;-91
2023/03/04 06:20:01;;;;;;;4.90;1.63;;;;;;;;;;4741077;30;20056;-90
2023/03/04 06:22:27;;;;;;;8.35;2.30;;;;;;;;;;4741162;30;20062;-91
2023/03/04 06:24:53;;;;;;;9.48;1.88;;;;;;;;;;4756048;30;20055;-93
2023/03/04 06:27:22;;;;;;;6.78;2.00;;;;;;;;;;4741419;30;20088;-94
2023/03/04 06:29:48;;;;;;;5.72;2.17;;;;;;;;;;4742049;30;20064;-92
2023/03/04 06:32:14;;;;;;;12.10;2.65;;;;;;;;;;4741418;30;20091;-93
2023/03/04 06:34:40;;;;;;;9.45;1.63;;;;;;;;;;4755795;30;20065;-89
2023/03/04 06:37:06;;;;;;;8.05;1.85;;;;;;;;;;4741005;30;20087;-90
2023/03/04 06:39:32;;;;;;;7.40;2.00;;;;;;;;;;4740990;30;20063;-89
2023/03/04 06:41:58;;;;;;;5.65;2.75;;;;;;;;;;4740654;30;20518;-91
2023/03/04 06:44:24;;;;;;;5.60;1.55;;;;;;;;;;4755561;30;20414;-89
2023/03/04 06:46:51;;;;;;;12.07;2.92;;;;;;;;;;4755623;30;20055;-89
2023/03/04 06:49:17;;;;;;;8.50;2.00;;;;;;;;;;4755765;30;20095;-90
2023/03/04 06:51:43;;;;;;;5.38;1.65;;;;;;;;;;4741361;30;20048;-91
2023/03/04 06:54:09;;;;;;;6.25;2.00;;;;;;;;;;4740446;30;20150;-93
2023/03/04 06:56:35;;;;;;;2.30;1.40;;;;;;;;;;4755315;30;20132;-89
2023/03/04 06:59:01;;;;;;;12.30;1.70;;;;;;;;;;4754798;30;20059;-89
2023/03/04 07:01:28;;;;;;;6.40;2.72;;;;;;;;;;4754875;30;20097;-90
2023/03/04 07:03:54;;;;;;;4.57;1.10;;;;;;;;;;4740307;30;20140;-91
2023/03/04 07:06:21;;;;;;;3.60;1.40;;;;;;;;;;4740443;30;20067;-90
2023/03/04 07:08:54;;;;;;;8.27;1.60;;;;;;;;;;4754829;30;20056;-90
2023/03/04 07:11:21;;;;;;;8.20;1.98;;;;;;;;;;4755190;30;20461;-91
2023/03/04 07:13:47;;;;;;;5.72;1.92;;;;;;;;;;4755141;30;20095;-90
2023/03/04 07:16:16;;;;;;;5.47;1.77;;;;;;;;;;4755408;30;20064;-93
2023/03/04 07:18:42;;;;;;;8.48;2.20;;;;;;;;;;4755150;30;20048;-90
2023/03/04 07:21:11;;;;;;;7.68;2.00;;;;;;;;;;4740361;30;20054;-91
2023/03/04 07:23:40;;;;;;;10.82;2.50;;;;;;;;;;4756083;30;20199;-91
2023/03/04 07:26:07;;;;;;;7.00;2.47;;;;;;;;;;4756331;30;20052;-91
2023/03/04 07:28:36;;;;;;;14.55;3.17;;;;;;;;;;4740827;30;20121;-91
2023/03/04 07:31:12;;;;;;;12.73;2.80;;;;;;;;;;4755536;30;20055;-93
2023/03/04 07:33:44;;;;;;;10.23;2.17;;;;;;;;;;4741233;30;20064;-91
2023/03/04 07:36:10;;;;;;;14.65;2.80;;;;;;;;;;4756271;30;20055;-90
2023/03/04 07:38:36;;;;;;;14.65;3.47;;;;;;;;;;4755612;30;20048;-91
2023/03/04 07:41:02;;;;;;;16.17;2.67;;;;;;;;;;4739909;30;20063;-90
2023/03/04 07:43:28;;;;;;;16.13;2.85;;;;;;;;;;4754460;30;20162;-90
2023/03/04 07:45:59;;;;;;;13.20;3.35;;;;;;;;;;4739725;30;20143;-89
2023/03/04 07:48:27;;;;;;;8.77;2.30;;;;;;;;;;4754156;30;20521;-89
2023/03/04 07:51:07;;;;;;;13.60;3.08;;;;;;;;;;4754698;30;20059;-90
2023/03/04 07:53:36;;;;;;;5.47;2.80;;;;;;;;;;4755391;30;20052;-94
2023/03/04 07:56:06;;;;;;;10.43;2.90;;;;;;;;;;4754865;30;20596;-93
2023/03/04 07:58:36;;;;;;;10.93;3.33;;;;;;;;;;4755868;30;20064;-92
2023/03/04 08:01:08;;;;;;;14.77;3.05;;;;;;;;;;4754687;30;20055;-93
2023/03/04 08:03:34;;;;;;;8.00;2.75;;;;;;;;;;4755372;30;20055;-92
2023/03/04 08:06:03;;;;;;;11.65;2.08;;;;;;;;;;4755149;30;20064;-92
2023/03/04 08:08:29;;;;;;;16.05;3.97;;;;;;;;;;4759272;30;20066;-92
2023/03/04 08:10:55;;;;;;;7.63;2.88;;;;;;;;;;4772033;30;20234;-92
2023/03/04 08:13:21;;;;;;;24.52;3.45;;;;;;;;;;4747770;30;20161;-92
2023/03/04 08:15:47;;;;;;;12.32;3.78;;;;;;;;;;4744226;30;20062;-92
2023/03/04 08:18:14;;;;;;;10.48;3.50;;;;;;;;;;4758649;30;20071;-92
2023/03/04 08:20:43;;;;;;;9.07;2.92;;;;;;;;;;4743619;30;20121;-92
2023/03/04 08:23:10;;;;;;;12.45;3.17;;;;;;;;;;4758467;30;20059;-92
2023/03/04 08:25:40;;;;;;;5.32;2.13;;;;;;;;;;4744208;30;20056;-93
2023/03/04 08:28:06;;;;;;;14.70;3.75;;;;;;;;;;4758495;30;20055;-93
2023/03/04 08:30:33;;;;;;;11.93;3.05;;;;;;;;;;4758549;30;20502;-93
2023/03/04 08:32:59;;;;;;;13.60;2.55;;;;;;;;;;4758718;30;20067;-92
2023/03/04 08:35:25;;;;;;;13.02;4.00;;;;;;;;;;4744189;30;20051;-92
2023/03/04 08:37:51;;;;;;;22.77;3.13;;;;;;;;;;4743493;30;20059;-92
2023/03/04 08:40:17;;;;;;;14.05;3.33;;;;;;;;;;4758784;30;20480;-92
2023/03/04 08:42:43;;;;;;;10.88;3.47;;;;;;;;;;4757641;30;20499;-92
2023/03/04 08:45:12;;;;;;;17.55;3.53;;;;;;;;;;4757758;30;20403;-92
2023/03/04 08:47:39;;;;;;;4.95;2.83;;;;;;;;;;4757488;30;20060;-93
2023/03/04 08:50:06;;;;;;;11.77;3.45;;;;;;;;;;4743132;30;20059;-92
2023/03/04 08:52:32;;;;;;;19.25;4.53;;;;;;;;;;4757823;30;20490;-93
2023/03/04 08:54:58;;;;;;;14.48;2.88;;;;;;;;;;4757728;30;20067;-93
2023/03/04 08:57:24;;;;;;;14.30;3.38;;;;;;;;;;4758076;30;20055;-93
2023/03/04 08:59:50;;;;;;;14.15;3.05;;;;;;;;;;4757823;30;20052;-94
2023/03/04 09:02:16;;;;;;;12.82;3.42;;;;;;;;;;4743554;30;20051;-92
2023/03/04 09:04:42;;;;;;;25.67;3.72;;;;;;;;;;4757778;30;20064;-94
2023/03/04 09:07:11;;;;;;;12.82;4.03;;;;;;;;;;4743397;30;20405;-94
2023/03/04 09:09:37;;;;;;;11.55;2.92;;;;;;;;;;4758205;30;20062;-93
2023/03/04 09:12:03;;;;;;;13.75;3.50;;;;;;;;;;4757942;30;20091;-93
2023/03/04 09:14:32;;;;;;;11.40;3.33;;;;;;;;;;4757749;30;20407;-96
2023/03/04 09:16:58;;;;;;;14.80;3.08;;;;;;;;;;4757849;30;20135;-96
2023/03/04 09:19:26;;;;;;;8.93;2.60;;;;;;;;;;4757624;30;20117;-95
2023/03/04 09:21:55;;;;;;;11.68;3.35;;;;;;;;;;4757888;30;20048;-95
2023/03/04 09:24:22;;;;;;;21.25;3.22;;;;;;;;;;4758281;30;20138;-95
2023/03/04 09:26:52;;;;;;;12.07;2.55;;;;;;;;;;4757598;30;20059;-95
2023/03/04 09:29:20;;;;;;;7.68;2.75;;;;;;;;;;4758105;30;20059;-95
2023/03/04 09:31:46;;;;;;;12.57;3.50;;;;;;;;;;4757597;30;20119;-95
2023/03/04 09:34:12;;;;;;;9.23;3.75;;;;;;;;;;4757664;30;20067;-95
2023/03/04 09:36:38;;;;;;;11.60;3.58;;;;;;;;;;4758618;30;20060;-95
2023/03/04 09:39:05;;;;;;;16.35;3.40;;;;;;;;;;4758377;30;20051;-95
2023/03/04 09:41:45;;;;;;;11.40;3.10;;;;;;;;;;4758314;30;20160;-95
2023/03/04 09:44:50;;;;;;;7.80;2.95;;;;;;;;;;4757043;30;20063;-95
2023/03/04 09:47:19;;;;;;;;;;;6.70;99.90;;;;;;4757968;30;20059;-95
2023/03/04 09:49:49;;;;;;;10.75;2.00;;;;;;;;;;4757857;30;19933;-95
2023/03/04 09:52:34;;;;;;;5.65;2.05;;;;;;;;;;4758288;30;20043;-96
2023/03/04 09:55:25;;;;;;;5.00;1.70;;;;;;;;;;4757149;30;20142;-95
2023/03/04 10:01:33;;;;;;;5.30;1.30;;;;;;;;;;4718370;30;20058;-95
2023/03/04 10:04:17;;;;;;;6.45;1.83;;;;;;;;;;4689458;30;20502;-95
2023/03/04 10:06:45;;;;;;;3.88;1.75;;;;;;;;;;4703493;30;20049;-95
2023/03/04 10:09:21;;;;;;;3.67;1.27;;;;;;;;;;4704254;30;20069;-95
2023/03/04 10:12:29;;;;;;;8.27;1.70;;;;;;;;;;4703589;30;20559;-96
2023/03/04 10:15:00;;;;;;;8.48;1.88;;;;;;;;;;4694000;30;20056;-95
2023/03/04 10:17:48;;;;;;;15.55;2.25;;;;;;;;;;4720955;30;20159;-94
2023/03/04 10:20:46;;;;;;;10.73;2.05;;;;;;;;;;4721036;30;20109;-94
2023/03/04 12:34:11;;;;;;;16.80;3.28;;;;;;;;;;4796155;24;20051;-93
2023/03/04 12:36:48;;;;;;;15.20;2.85;;;;;;;;;;4740708;30;20055;-93
2023/03/04 12:39:31;;;;;;;22.13;3.28;;;;;;;;;;4741060;30;20064;-93
2023/03/04 12:42:05;;;;;;;9.88;3.80;;;;;;;;;;4740673;30;20055;-93
2023/03/04 12:44:35;;;;;;;12.85;2.70;;;;;;;;;;4740606;30;20062;-93
2023/03/04 12:47:34;;;;;;;8.20;2.47;;;;;;;;;;4755101;30;20113;-92
2023/03/04 12:50:07;;;;;;;8.98;2.42;;;;;;;;;;4729384;30;20060;-93
2023/03/04 12:52:57;;;;;;;19.40;3.22;;;;;;;;;;4756124;30;20401;-92
2023/03/04 12:58:49;;;;;;;9.43;2.10;;;;;;;;;;4774373;30;20050;-93
2023/03/04 13:05:18;;;;;;;15.23;3.15;;;7.10;99.90;;;;;;4773995;30;20453;-93
2023/03/04 13:08:05;;;;;;;8.77;2.38;;;;;;;;;;4758454;30;20063;-95
2023/03/04 13:10:38;;;;;;;13.95;4.30;;;;;;;;;;4757325;30;20143;-93
2023/03/04 13:13:24;;;;;;;13.88;2.38;;;;;;;;;;4758128;30;20055;-93
2023/03/04 13:18:29;;;;;;;11.00;2.22;;;;;;;;;;4800065;24;20520;-93
2023/03/04 13:21:25;;;;;;;14.95;2.20;;;;;;;;;;4743468;30;20063;-92
2023/03/04 13:23:57;;;;;;;8.77;2.38;;;;;;;;;;4724210;30;20079;-92
2023/03/04 13:26:39;;;;;;;12.35;1.83;;;;;;;;;;4727301;30;20071;-93
2023/03/04 13:29:17;;;;;;;10.50;3.08;;;;;;;;;;4747284;30;20079;-93
2023/03/04 13:32:02;;;;;;;6.38;1.73;;;;;;;;;;4749343;30;20422;-93
2023/03/04 13:38:18;;;;;;;7.65;3.30;;;;;;;;;;4777059;30;20099;-93
2023/03/04 13:41:04;;;;;;;11.75;2.17;;;;;;;;;;4743165;30;20138;-93
2023/03/04 13:43:43;;;;;;;9.38;3.15;;;;;;;;;;4757866;30;20234;-93
2023/03/04 13:46:19;;;;;;;5.30;2.28;;;;;;;;;;4765470;30;20101;-93
2023/03/04 13:48:51;;;;;;;8.68;1.88;;;;;;;;;;4776141;30;20056;-93
2023/03/04 13:51:27;;;;;;;6.32;2.38;;;;;;;;;;4765392;30;20506;-93
2023/03/04 13:53:54;;;;;;;9.23;2.72;;;;;;;;;;4759556;30;20052;-93
2023/03/04 13:56:27;;;;;;;12.00;2.42;;;;;;;;;;4758696;30;20064;-93
2023/03/04 13:59:14;;;;;;;8.50;2.33;;;;;;;;;;4757377;30;20089;-93
2023/03/04 14:01:43;;;;;;;3.42;2.15;;;;;;;;;;4742320;30;20154;-93
2023/03/04 14:04:23;;;;;;;7.38;1.90;;;;;;;;;;4756307;30;20067;-94
2023/03/04 14:06:51;;;;;;;7.00;2.45;;;;;;;;;;4757303;30;20052;-93
2023/03/04 14:09:24;;;;;;;7.72;3.08;;;;;;;;;;4756968;30;20095;-93
2023/03/04 14:11:52;;;;;;;7.00;2.08;;;;;;;;;;4757569;30;20063;-94
2023/03/04 14:14:20;;;;;;;12.40;3.22;;;;;;;;;;4756866;30;20063;-93
2023/03/04 14:16:55;;;;;;;9.38;2.45;;;;;;;;;;4756731;30;20058;-94
2023/03/04 14:19:37;;;;;;;9.63;2.17;;;;;;;;;;4756369;30;20055;-93
2023/03/04 14:22:19;;;;;;;16.23;2.80;;;;;;;;;;4756582;30;20156;-93
2023/03/04 14:24:56;;;;;;;8.18;2.33;;;;;;;;;;4756902;30;20058;-93
2023/03/04 14:27:22;;;;;;;11.05;2.45;;;;;;;;;;4756830;30;20146;-93
2023/03/04 14:29:57;;;;;;;13.52;3.45;;;;;;;;;;4756519;30;20098;-93
2023/03/04 14:32:24;;;;;;;12.95;2.38;;;;;;;;;;4756292;30;20055;-93
2023/03/04 14:34:51;;;;;;;10.07;2.65;;;;;;;;;;4757020;30;20514;-94
2023/03/04 14:37:22;;;;;;;8.20;2.47;;;;;;;;;;4756888;30;20193;-93
2023/03/04 14:39:53;;;;;;;17.58;2.60;;;;;;;;;;4757519;30;20095;-93
2023/03/04 14:42:23;;;;;;;9.98;2.38;;;;;;;;;;4756582;30;20056;-93
2023/03/04 14:44:50;;;;;;;12.30;2.30;;;;;;;;;;4756249;30;20189;-93
2023/03/04 14:47:19;;;;;;;10.18;2.35;;;;;;;;;;4756300;30;20052;-92
2023/03/04 14:49:45;;;;;;;15.43;2.63;;;;;;;;;;4756258;30;20395;-93
2023/03/04 14:52:27;;;;;;;12.23;2.60;;;;;;;;;;4755796;30;20138;-93
2023/03/04 14:55:04;;;;;;;14.57;2.83;;;;;;;;;;4756426;30;20094;-92
2023/03/04 14:57:32;;;;;;;14.63;2.15;;;;;;;;;;4755457;30;20201;-92
2023/03/04 15:00:14;;;;;;;8.23;2.55;;;;;;;;;;4755565;30;20146;-91
2023/03/04 15:02:40;;;;;;;11.38;3.67;;;;;;;;;;4755507;30;20528;-92
2023/03/04 15:05:41;;;;;;;14.07;3.10;;;;;;;;;;4755407;30;20502;-91
2023/03/04 15:08:17;;;;;;;12.85;3.67;;;;;;;;;;4722060;30;20146;-92
2023/03/04 15:10:43;;;;;;;11.20;2.60;;;;;;;;;;4755776;30;20058;-91
2023/03/04 15:13:09;;;;;;;3.83;2.13;;;;;;;;;;4726540;30;20062;-91
2023/03/04 15:15:40;;;;;;;16.55;2.72;;;;;;;;;;4741043;30;20146;-90
2023/03/04 15:18:13;;;;;;;18.90;3.63;;;;;;;;;;4755311;30;20098;-93
2023/03/04 15:20:41;;;;;;;8.85;3.42;;;;;;;;;;4755144;30;20089;-91
2023/03/04 15:23:08;;;;;;;12.32;3.50;;;;;;;;;;4755019;30;20085;-91
2023/03/04 15:25:37;;;;;;;14.70;2.53;;;;;;;;;;4755630;30;20076;-92
2023/03/04 15:28:03;;;;;;;7.07;2.28;;;;;;;;;;4755891;30;20063;-91
2023/03/04 15:30:31;;;;;;;5.95;2.45;;;;;;;;;;4755465;30;20141;-91
2023/03/04 15:33:00;;;;;;;12.90;2.33;;;;;;;;;;4755500;30;20061;-93
2023/03/04 15:35:28;;;;;;;11.43;2.90;;;;;;;;;;4755388;30;20063;-92
2023/03/04 15:37:55;;;;;;;9.88;2.08;;;;;;;;;;4756345;30;20056;-93
2023/03/04 15:40:31;;;;;;;7.38;3.05;;;;;;;;;;4756249;30;20060;-92
2023/03/04 15:43:01;;;;;;;5.53;1.75;;;;;;;;;;4756416;30;20056;-93
2023/03/04 15:45:35;;;;;;;14.35;3.00;;;;;;;;;;4755322;30;20097;-93
2023/03/04 15:48:06;;;;;;;12.77;2.60;;;;;;;;;;4755302;30;20056;-92
2023/03/04 15:50:35;;;;;;;10.50;3.05;;;;;;;;;;4754526;30;20059;-91
2023/03/04 15:53:06;;;;;;;7.72;2.80;;;;;;;;;;4754574;30;20056;-91
2023/03/04 15:55:34;;;;;;;11.63;3.42;;;;;;;;;;4754745;30;20063;-93
2023/03/04 15:58:00;;;;;;;14.40;3.10;;;;;;;;;;4740953;30;20055;-93
2023/03/04 16:00:26;;;;;;;10.15;2.60;;;;;;;;;;4754970;30;20055;-91
2023/03/04 16:02:52;;;;;;;15.93;3.65;;;;;;;;;;4755348;30;20105;-92
2023/03/04 16:05:20;;;;;;;17.45;2.42;;;;;;;;;;4754928;30;20055;-92
2023/03/04 16:07:47;;;;;;;12.93;2.67;;;;;;;;;;4755327;30;20060;-92
2023/03/04 16:10:26;;;;;;;8.15;3.20;;;;;;;;;;4754897;30;20549;-92
2023/03/04 16:12:53;;;;;;;17.75;3.13;;;;;;;;;;4755004;30;20064;-92
2023/03/04 16:15:26;;;;;;;10.00;2.10;;;;;;;;;;4754717;30;20063;-93
2023/03/04 16:17:53;;;;;;;7.88;1.90;;;;;;;;;;4754931;30;20047;-92
2023/03/04 16:20:21;;;;;;;8.40;2.35;;;;;;;;;;4754691;30;20062;-93
2023/03/04 16:22:49;;;;;;;7.80;1.75;;;;;;;;;;4754446;30;20563;-92
2023/03/04 16:25:16;;;;;;;5.15;2.25;;;;;;;;;;4755072;30;20084;-91
2023/03/04 16:27:42;;;;;;;8.50;1.80;;;;;;;;;;4741093;30;20534;-93
2023/03/04 16:30:12;;;;;;;3.10;2.10;;;;;;;;;;4744455;30;20048;-94
2023/03/04 16:32:38;;;;;;;4.22;1.77;;;;;;;;;;4758894;30;20523;-93
2023/03/04 16:35:05;;;;;;;9.25;2.15;;;;;;;;;;4744897;30;20055;-92
2023/03/04 16:37:31;;;;;;;7.60;2.30;;;;;;;;;;4743846;30;20063;-91
2023/03/04 16:39:58;;;;;;;11.13;2.38;;;;;;;;;;4758917;30;20056;-94
2023/03/04 16:42:25;;;;;;;9.80;2.67;;;;;;;;;;4758711;30;20055;-93
2023/03/04 16:44:52;;;;;;;5.93;2.00;;;;;;;;;;4758334;30;20506;-93
2023/03/04 16:47:18;;;;;;;9.38;3.03;;;;;;;;;;4758201;30;20128;-92
2023/03/04 16:49:47;;;;;;;4.22;2.03;;;;;;;;;;4757854;30;20060;-92
2023/03/04 16:52:16;;;;;;;8.88;1.90;;;;;;;;;;4757767;30;20055;-92
2023/03/04 16:54:42;;;;;;;14.43;2.22;;;;;;;;;;4760573;30;20063;-91
2023/03/04 16:57:09;;;;;;;3.58;1.58;;;;;;;;;;4757991;30;20059;-92
2023/03/04 16:59:36;;;;;;;6.53;2.00;;;;;;;;;;4757871;30;20087;-92
2023/03/04 17:02:02;;;;;;;15.35;2.60;;;;;;;;;;4757597;30;20048;-93
2023/03/04 17:04:28;;;;;;;5.32;1.95;;;;;;;;;;4760027;30;20051;-92
2023/03/04 17:06:54;;;;;;;9.55;2.20;;;;;;;;;;4743167;30;20123;-94
2023/03/04 17:09:20;;;;;;;4.68;2.15;;;;;;;;;;4743085;30;20064;-92
2023/03/04 17:11:47;;;;;;;8.00;1.88;;;;;;;;;;4743239;30;20406;-93
2023/03/04 17:14:13;;;;;;;7.40;1.77;;;;;;;;;;4744959;30;20525;-94